createdAt,value
2022-09-14T00:04:06.785Z,100.00
2022-09-14T00:06:40.375Z,100.00
2022-09-14T00:12:49.134Z,100.00
2022-09-14T00:15:47.657Z,100.00
2022-09-14T00:18:54.552Z,100.00
2022-09-14T00:21:27.482Z,100.00
2022-09-14T00:24:14.102Z,100.00
2022-09-14T00:27:11.015Z,100.00
2022-09-14T00:33:25.564Z,100.00
2022-09-14T00:40:01.498Z,100.00
2022-09-14T00:43:27.002Z,100.00
2022-09-14T00:46:03.889Z,100.00
2022-09-14T00:48:44.754Z,100.00
2022-09-14T00:51:12.341Z,100.00
2022-09-14T00:53:51.602Z,100.00
2022-09-14T00:57:07.613Z,100.00
2022-09-14T01:03:28.921Z,100.00
2022-09-14T01:10:02.093Z,100.00
2022-09-14T01:13:13.952Z,100.00
2022-09-14T01:24:12.668Z,100.00
2022-09-14T01:30:35.223Z,100.00
2022-09-14T01:33:58.701Z,100.00
2022-09-14T01:41:06.852Z,100.00
2022-09-14T01:44:05.829Z,100.00
2022-09-14T01:46:47.147Z,100.00
2022-09-14T01:53:23.584Z,100.00
2022-09-14T01:56:37.443Z,100.00
2022-09-14T02:03:30.482Z,100.00
2022-09-14T02:06:25.073Z,100.00
2022-09-14T02:09:47.347Z,100.00
2022-09-14T02:12:15.307Z,100.00
2022-09-14T02:14:44.679Z,100.00
2022-09-14T02:17:29.823Z,100.00
2022-09-14T02:20:24.156Z,100.00
2022-09-14T02:22:51.995Z,100.00
2022-09-14T02:25:34.187Z,100.00
2022-09-14T02:28:15.204Z,100.00
2022-09-14T02:31:40.235Z,100.00
2022-09-14T02:38:29.964Z,100.00
2022-09-14T02:41:38.079Z,100.00
2022-09-14T02:55:25.118Z,100.00
2022-09-14T02:58:40.498Z,100.00
2022-09-14T03:05:50.415Z,100.00
2022-09-14T03:09:09.208Z,100.00
2022-09-14T03:19:23.879Z,100.00
2022-09-14T03:25:40.697Z,100.00
2022-09-14T03:28:24.490Z,100.00
2022-09-14T03:31:14.568Z,100.00
2022-09-14T03:37:29.946Z,100.00
2022-09-14T03:39:58.931Z,100.00
2022-09-14T03:42:26.622Z,100.00
2022-09-14T03:45:32.852Z,100.00
2022-09-14T03:48:16.841Z,100.00
2022-09-14T03:55:10.468Z,100.00
2022-09-14T03:58:37.950Z,100.00
2022-09-14T04:01:33.330Z,100.00
2022-09-14T04:07:47.777Z,100.00
2022-09-14T04:10:33.724Z,100.00
2022-09-14T04:13:36.044Z,100.00
2022-09-14T04:16:05.021Z,100.00
2022-09-14T04:22:13.395Z,100.00
2022-09-14T04:24:47.823Z,100.00
2022-09-14T04:31:03.024Z,100.00
2022-09-14T04:37:17.724Z,100.00
2022-09-14T04:43:51.257Z,100.00
2022-09-14T04:46:33.378Z,100.00
2022-09-14T04:52:41.518Z,100.00
2022-09-14T04:55:11.624Z,100.00
2022-09-14T04:57:41.476Z,100.00
2022-09-14T05:00:12.963Z,100.00
2022-09-14T05:03:26.992Z,100.00
2022-09-14T05:06:10.790Z,100.00
2022-09-14T05:09:35.704Z,100.00
2022-09-14T05:19:48.782Z,100.00
2022-09-14T05:22:23.600Z,100.00
2022-09-14T05:24:51.415Z,100.00
2022-09-14T05:28:16.424Z,100.00
2022-09-14T05:34:25.855Z,100.00
2022-09-14T05:37:11.718Z,100.00
2022-09-14T05:39:56.690Z,100.00
2022-09-14T05:42:30.757Z,100.00
2022-09-14T05:45:30.366Z,100.00
2022-09-14T05:48:05.651Z,100.00
2022-09-14T05:50:36.256Z,100.00
2022-09-14T05:53:31.457Z,100.00
2022-09-14T05:56:14.202Z,100.00
2022-09-14T05:58:56.209Z,100.00
2022-09-14T06:01:37.247Z,100.00
2022-09-14T06:04:54.376Z,100.00
2022-09-14T06:08:06.706Z,100.00
2022-09-14T06:10:39.259Z,100.00
2022-09-14T06:18:22.204Z,100.00
2022-09-14T06:22:04.328Z,100.00
2022-09-14T06:24:36.427Z,100.00
2022-09-14T06:27:31.977Z,100.00
2022-09-14T06:30:08.146Z,100.00
2022-09-14T06:32:42.991Z,100.00
2022-09-14T06:35:12.572Z,100.00
2022-09-14T06:37:44.832Z,100.00
2022-09-14T06:40:54.645Z,100.00
2022-09-14T06:43:36.882Z,100.00
2022-09-14T06:46:22.740Z,100.00
2022-09-14T06:49:09.002Z,100.00
2022-09-14T06:51:43.494Z,100.00
2022-09-14T06:54:14.625Z,100.00
2022-09-14T06:56:51.061Z,100.00
2022-09-14T06:59:21.000Z,100.00
2022-09-14T07:02:01.841Z,100.00
2022-09-14T07:04:31.232Z,100.00
2022-09-14T07:07:09.032Z,100.00
2022-09-14T07:12:32.203Z,100.00
2022-09-14T07:15:18.723Z,100.00
2022-09-14T07:18:23.839Z,100.00
2022-09-14T07:20:54.681Z,100.00
2022-09-14T08:17:54.655Z,100.00
2022-09-14T08:20:23.536Z,100.00
2022-09-14T08:22:52.255Z,100.00
2022-09-14T08:25:36.216Z,100.00
2022-09-14T08:28:22.846Z,100.00
2022-09-14T08:31:28.298Z,100.00
2022-09-14T08:34:08.216Z,100.00
2022-09-14T08:41:08.895Z,100.00
2022-09-14T08:44:19.055Z,100.00
2022-09-14T08:47:27.221Z,100.00
2022-09-14T08:50:09.566Z,100.00
2022-09-14T08:53:07.887Z,100.00
2022-09-14T08:55:50.855Z,100.00
2022-09-14T08:58:53.381Z,100.00
2022-09-14T09:01:49.527Z,100.00
2022-09-14T09:05:08.616Z,100.00
2022-09-14T09:07:53.216Z,100.00
2022-09-14T09:10:22.534Z,100.00
2022-09-14T09:13:02.657Z,100.00
2022-09-14T09:15:51.682Z,100.00
2022-09-14T09:18:43.466Z,100.00
2022-09-14T09:21:18.619Z,100.00
2022-09-14T09:23:47.016Z,100.00
2022-09-14T09:26:32.608Z,100.00
2022-09-14T09:29:04.131Z,100.00
2022-09-14T09:31:43.011Z,100.00
2022-09-14T09:34:15.294Z,100.00
2022-09-14T09:36:51.065Z,100.00
2022-09-14T09:39:19.318Z,100.00
2022-09-14T09:42:04.894Z,100.00
2022-09-14T09:45:02.182Z,100.00
2022-09-14T09:47:35.321Z,100.00
2022-09-14T09:50:16.807Z,100.00
2022-09-14T09:53:20.899Z,100.00
2022-09-14T09:55:52.728Z,100.00
2022-09-14T09:58:37.727Z,100.00
2022-09-14T10:01:19.709Z,100.00
2022-09-14T10:04:04.928Z,100.00
2022-09-14T10:06:32.843Z,100.00
2022-09-14T10:09:00.999Z,100.00
2022-09-14T10:11:38.367Z,100.00
2022-09-14T10:18:17.928Z,99.42
2022-09-14T10:21:06.651Z,99.21
2022-09-14T10:23:38.679Z,98.67
2022-09-14T10:26:15.561Z,98.54
2022-09-14T10:28:44.759Z,98.23
2022-09-14T10:31:32.178Z,97.49
2022-09-14T10:34:00.016Z,97.16
2022-09-14T10:36:34.321Z,97.12
2022-09-14T10:39:26.240Z,98.22
2022-09-14T10:42:03.292Z,98.08
2022-09-14T10:45:02.238Z,98.75
2022-09-14T10:47:52.737Z,98.33
2022-09-14T10:50:28.425Z,96.83
2022-09-14T10:52:59.478Z,96.18
2022-09-14T10:55:43.063Z,94.38
2022-09-14T10:58:26.266Z,93.20
2022-09-14T11:01:32.713Z,92.77
2022-09-14T11:04:09.223Z,91.76
2022-09-14T11:07:01.210Z,90.96
2022-09-14T11:09:34.525Z,90.17
2022-09-14T11:12:08.891Z,89.40
2022-09-14T11:15:04.319Z,90.17
2022-09-14T11:17:35.505Z,89.31
2022-09-14T11:20:32.018Z,89.25
2022-09-14T11:23:20.582Z,89.17
2022-09-14T11:25:48.696Z,87.63
2022-09-14T11:28:19.007Z,86.24
2022-09-14T11:31:02.858Z,84.57
2022-09-14T11:33:37.918Z,83.49
2022-09-14T11:36:20.505Z,82.56
2022-09-14T11:39:06.136Z,81.82
2022-09-14T11:41:44.497Z,82.32
2022-09-14T11:44:40.461Z,82.41
2022-09-14T11:47:15.656Z,82.35
2022-09-14T11:50:10.903Z,83.66
2022-09-14T11:52:38.679Z,83.49
2022-09-14T11:55:11.409Z,84.15
2022-09-14T11:57:39.379Z,85.28
2022-09-14T12:00:36.487Z,86.19
2022-09-14T12:03:51.136Z,87.38
2022-09-14T12:06:31.596Z,87.28
2022-09-14T12:09:21.750Z,88.07
2022-09-14T12:11:49.522Z,88.09
2022-09-14T12:14:28.829Z,88.38
2022-09-14T12:20:33.638Z,87.48
2022-09-14T12:23:21.832Z,86.49
2022-09-14T12:26:02.598Z,85.39
2022-09-14T12:28:36.177Z,83.73
2022-09-14T12:31:06.730Z,82.72
2022-09-14T12:33:34.523Z,81.59
2022-09-14T12:36:11.959Z,80.06
2022-09-14T12:39:06.150Z,79.19
2022-09-14T12:41:41.583Z,79.14
2022-09-14T12:44:43.492Z,77.86
2022-09-14T12:47:26.477Z,76.38
2022-09-14T12:49:54.364Z,75.26
2022-09-14T12:52:58.945Z,74.79
2022-09-14T12:56:07.751Z,70.72
2022-09-14T12:58:51.586Z,69.88
2022-09-14T13:01:51.311Z,68.13
2022-09-14T13:04:35.361Z,66.27
2022-09-14T13:07:07.177Z,65.86
2022-09-14T13:09:35.202Z,67.32
2022-09-14T13:12:07.033Z,69.26
2022-09-14T13:15:04.515Z,70.95
2022-09-14T13:17:32.278Z,72.25
2022-09-14T13:20:04.523Z,72.14
2022-09-14T13:22:33.771Z,71.81
2022-09-14T13:25:04.738Z,72.62
2022-09-14T13:27:34.431Z,74.72
2022-09-14T13:30:09.458Z,76.69
2022-09-14T13:32:41.780Z,76.72
2022-09-14T13:35:21.012Z,76.62
2022-09-14T13:37:48.987Z,77.33
2022-09-14T13:40:17.589Z,77.88
2022-09-14T13:42:46.138Z,77.58
2022-09-14T13:45:14.557Z,78.13
2022-09-14T13:47:42.328Z,78.47
2022-09-14T13:50:13.371Z,78.78
2022-09-14T13:53:02.255Z,78.78
2022-09-14T13:55:43.914Z,78.37
2022-09-14T13:58:23.132Z,78.22
2022-09-14T14:01:00.578Z,77.68
2022-09-14T14:03:39.720Z,77.74
2022-09-14T14:06:28.109Z,78.38
2022-09-14T14:09:17.479Z,77.37
2022-09-14T14:11:52.520Z,76.92
2022-09-14T14:14:31.036Z,77.48
2022-09-14T14:17:14.472Z,79.41
2022-09-14T14:19:44.651Z,80.13
2022-09-14T14:22:14.964Z,78.91
2022-09-14T14:25:12.309Z,77.23
2022-09-14T14:27:46.407Z,75.25
2022-09-14T14:30:39.239Z,74.80
2022-09-14T14:33:10.716Z,75.19
2022-09-14T14:35:38.392Z,75.33
2022-09-14T14:38:06.369Z,75.58
2022-09-14T14:40:38.289Z,75.37
2022-09-14T14:43:06.472Z,76.19
2022-09-14T14:45:36.533Z,76.59
2022-09-14T14:48:05.640Z,77.67
2022-09-14T14:50:34.641Z,77.56
2022-09-14T14:53:03.675Z,77.42
2022-09-14T14:55:32.344Z,76.93
2022-09-14T14:58:26.661Z,75.77
2022-09-14T15:01:03.632Z,74.12
2022-09-14T15:03:44.291Z,73.37
2022-09-14T15:06:21.660Z,71.04
2022-09-14T15:08:55.281Z,70.56
2022-09-14T15:11:42.256Z,70.90
2022-09-14T15:14:18.747Z,71.34
2022-09-14T15:17:05.042Z,71.26
2022-09-14T15:19:53.999Z,71.79
2022-09-14T15:22:56.694Z,72.24
2022-09-14T15:25:42.039Z,72.77
2022-09-14T15:28:29.645Z,73.44
2022-09-14T15:31:16.737Z,74.75
2022-09-14T15:37:05.195Z,78.61
2022-09-14T15:39:48.155Z,78.60
2022-09-14T15:42:31.434Z,75.53
2022-09-14T15:45:43.011Z,73.85
2022-09-14T15:48:31.583Z,71.83
2022-09-14T15:51:11.229Z,71.69
2022-09-14T15:53:58.911Z,72.85
2022-09-14T15:56:26.879Z,72.59
2022-09-14T15:59:04.707Z,72.09
2022-09-14T16:01:46.629Z,72.95
2022-09-14T16:04:22.548Z,73.39
2022-09-14T16:07:00.957Z,75.39
2022-09-14T16:09:29.858Z,75.43
2022-09-14T16:12:11.833Z,76.20
2022-09-14T16:14:48.948Z,75.68
2022-09-14T16:17:34.060Z,75.89
2022-09-14T16:20:09.487Z,76.70
2022-09-14T16:23:03.474Z,76.14
2022-09-14T16:25:47.490Z,76.80
2022-09-14T16:28:30.257Z,78.03
2022-09-14T16:31:28.449Z,77.17
2022-09-14T16:34:22.348Z,77.68
2022-09-14T16:36:52.984Z,78.62
2022-09-14T16:39:25.815Z,80.12
2022-09-14T16:41:56.239Z,80.84
2022-09-14T16:44:26.504Z,82.01
2022-09-14T16:46:55.025Z,83.31
2022-09-14T16:49:27.196Z,83.90
2022-09-14T16:51:57.348Z,83.84
2022-09-14T16:54:26.443Z,84.72
2022-09-14T16:56:57.460Z,85.14
2022-09-14T16:59:26.702Z,85.81
2022-09-14T17:01:55.422Z,84.71
2022-09-14T17:04:24.427Z,82.90
2022-09-14T17:06:52.817Z,82.14
2022-09-14T17:09:23.874Z,81.97
2022-09-14T17:11:52.005Z,82.11
2022-09-14T17:14:21.469Z,82.17
2022-09-14T17:16:50.079Z,82.83
2022-09-14T17:19:18.447Z,81.51
2022-09-14T17:21:46.591Z,81.18
2022-09-14T17:24:15.758Z,81.47
2022-09-14T17:26:43.977Z,82.20
2022-09-14T17:29:14.594Z,82.88
2022-09-14T17:31:44.977Z,82.97
2022-09-14T17:43:29.265Z,85.36
2022-09-14T17:46:20.323Z,86.41
2022-09-14T17:53:16.561Z,87.79
2022-09-14T19:52:04.736Z,100.00
2022-09-14T19:54:33.540Z,100.00
2022-09-14T19:57:02.415Z,100.00
2022-09-14T19:59:30.614Z,100.00
2022-09-14T20:01:59.806Z,100.00
2022-09-14T20:04:28.278Z,100.00
2022-09-14T20:06:56.983Z,100.00
2022-09-14T20:09:25.083Z,100.00
2022-09-14T20:11:53.801Z,100.00
2022-09-14T20:14:24.491Z,100.00
2022-09-14T20:16:58.267Z,100.00
2022-09-14T20:19:28.009Z,100.00
2022-09-14T20:21:55.692Z,100.00
2022-09-14T20:24:26.311Z,100.00
2022-09-14T20:26:55.880Z,100.00
2022-09-14T20:29:24.822Z,100.00
2022-09-14T20:31:54.197Z,100.00
2022-09-14T20:34:22.155Z,100.00
2022-09-14T20:36:52.441Z,100.00
2022-09-14T20:39:20.822Z,100.00
2022-09-14T20:41:49.619Z,100.00
2022-09-14T20:44:17.726Z,100.00
2022-09-14T20:46:47.889Z,100.00
2022-09-14T20:49:18.958Z,100.00
2022-09-14T20:51:47.140Z,100.00
2022-09-14T20:54:17.755Z,100.00
2022-09-14T20:56:46.809Z,100.00
2022-09-14T20:59:16.225Z,100.00
2022-09-14T21:01:46.033Z,100.00
2022-09-14T21:04:20.140Z,100.00
2022-09-14T21:06:49.716Z,100.00
2022-09-14T21:09:18.863Z,100.00
2022-09-14T21:11:48.861Z,100.00
2022-09-14T21:14:17.985Z,100.00
2022-09-14T21:24:44.939Z,100.00
2022-09-14T21:27:12.669Z,100.00
2022-09-14T21:29:40.657Z,100.00
2022-09-14T21:36:47.575Z,100.00
2022-09-14T21:39:23.852Z,100.00
2022-09-14T21:41:58.747Z,100.00
2022-09-14T21:44:36.288Z,100.00
2022-09-14T21:47:04.158Z,100.00
2022-09-14T21:49:32.031Z,100.00
2022-09-14T21:52:02.192Z,100.00
2022-09-14T21:54:30.429Z,100.00
2022-09-14T21:56:58.640Z,100.00
2022-09-14T21:59:26.354Z,100.00
2022-09-14T22:01:54.164Z,100.00
2022-09-14T22:04:23.188Z,100.00
2022-09-14T22:06:52.337Z,100.00
2022-09-14T22:09:22.108Z,100.00
2022-09-14T22:11:49.773Z,100.00
2022-09-14T22:14:20.241Z,100.00
2022-09-14T22:24:31.243Z,100.00
2022-09-14T22:27:02.434Z,100.00
2022-09-14T22:29:31.159Z,100.00
2022-09-14T22:31:58.856Z,100.00
2022-09-14T22:34:26.714Z,100.00
2022-09-14T22:36:55.067Z,100.00
2022-09-14T22:39:22.723Z,100.00
2022-09-14T22:41:51.161Z,100.00
2022-09-14T22:44:19.271Z,100.00
2022-09-14T22:46:48.343Z,100.00
2022-09-14T22:49:17.118Z,100.00
2022-09-14T22:51:45.118Z,100.00
2022-09-14T22:54:12.927Z,100.00
2022-09-14T22:56:41.834Z,100.00
2022-09-14T22:59:10.535Z,100.00
2022-09-14T23:01:40.530Z,100.00
2022-09-14T23:04:12.409Z,100.00
2022-09-14T23:06:45.324Z,100.00
2022-09-14T23:09:16.690Z,100.00
2022-09-14T23:11:45.284Z,100.00
2022-09-14T23:14:14.991Z,100.00
2022-09-14T23:16:43.567Z,100.00
2022-09-14T23:19:15.062Z,100.00
2022-09-14T23:21:43.880Z,100.00
2022-09-14T23:24:11.660Z,100.00
2022-09-14T23:26:42.010Z,100.00
2022-09-14T23:29:13.166Z,100.00
2022-09-14T23:31:42.157Z,100.00
2022-09-14T23:34:10.281Z,100.00
2022-09-14T23:36:38.265Z,100.00
2022-09-14T23:39:06.043Z,100.00
2022-09-14T23:41:33.637Z,100.00
2022-09-14T23:44:02.736Z,100.00
2022-09-14T23:46:32.354Z,100.00
2022-09-14T23:49:00.058Z,100.00
2022-09-14T23:51:27.781Z,100.00
2022-09-14T23:53:55.715Z,100.00
2022-09-14T23:56:23.294Z,100.00
2022-09-14T23:58:51.134Z,100.00
